sensor_id;sensor_type;location;lat;lon;timestamp;P1;durP1;ratioP1;P2;durP2;ratioP2
65753;SDS011;52488;47.502;18.940;2022-11-18T00:00:05;22.50;;;11.05;;
65753;SDS011;52488;47.502;18.940;2022-11-18T00:01:10;22.20;;;12.05;;
65753;SDS011;52488;47.502;18.940;2022-11-18T00:02:15;21.50;;;11.30;;
65753;SDS011;52488;47.502;18.940;2022-11-18T00:03:18;22.00;;;10.45;;
65753;SDS011;52488;47.502;18.940;2022-11-18T00:04:21;20.65;;;11.20;;
65753;SDS011;52488;47.502;18.940;2022-11-18T00:05:24;24.48;;;11.75;;
65753;SDS011;52488;47.502;18.940;2022-11-18T00:06:27;20.75;;;11.23;;
65753;SDS011;52488;47.502;18.940;2022-11-18T00:07:31;21.30;;;12.02;;
65753;SDS011;52488;47.502;18.940;2022-11-18T00:08:34;20.15;;;10.80;;
65753;SDS011;52488;47.502;18.940;2022-11-18T00:09:37;18.73;;;10.93;;
65753;SDS011;52488;47.502;18.940;2022-11-18T00:10:40;21.15;;;11.18;;
65753;SDS011;52488;47.502;18.940;2022-11-18T00:11:43;23.80;;;11.82;;
65753;SDS011;52488;47.502;18.940;2022-11-18T00:13:05;22.62;;;11.82;;
65753;SDS011;52488;47.502;18.940;2022-11-18T00:14:29;31.45;;;13.30;;
65753;SDS011;52488;47.502;18.940;2022-11-18T00:15:32;21.77;;;11.68;;
65753;SDS011;52488;47.502;18.940;2022-11-18T00:16:35;21.65;;;11.15;;
65753;SDS011;52488;47.502;18.940;2022-11-18T00:17:40;21.52;;;11.85;;
65753;SDS011;52488;47.502;18.940;2022-11-18T00:18:42;24.08;;;12.40;;
65753;SDS011;52488;47.502;18.940;2022-11-18T00:19:45;25.23;;;12.90;;
65753;SDS011;52488;47.502;18.940;2022-11-18T00:20:48;23.12;;;12.13;;
65753;SDS011;52488;47.502;18.940;2022-11-18T00:21:51;24.30;;;13.23;;
65753;SDS011;52488;47.502;18.940;2022-11-18T00:22:55;25.02;;;13.02;;
65753;SDS011;52488;47.502;18.940;2022-11-18T00:23:57;23.42;;;12.32;;
65753;SDS011;52488;47.502;18.940;2022-11-18T00:25:01;27.95;;;12.57;;
65753;SDS011;52488;47.502;18.940;2022-11-18T00:26:08;24.27;;;12.48;;
65753;SDS011;52488;47.502;18.940;2022-11-18T00:27:14;23.87;;;12.25;;
65753;SDS011;52488;47.502;18.940;2022-11-18T00:28:16;23.58;;;12.55;;
65753;SDS011;52488;47.502;18.940;2022-11-18T00:29:19;23.15;;;11.43;;
65753;SDS011;52488;47.502;18.940;2022-11-18T00:30:23;21.20;;;11.43;;
65753;SDS011;52488;47.502;18.940;2022-11-18T00:31:26;22.55;;;11.50;;
65753;SDS011;52488;47.502;18.940;2022-11-18T00:32:34;23.98;;;11.73;;
65753;SDS011;52488;47.502;18.940;2022-11-18T00:33:37;23.17;;;12.55;;
65753;SDS011;52488;47.502;18.940;2022-11-18T00:34:40;23.15;;;12.30;;
65753;SDS011;52488;47.502;18.940;2022-11-18T00:35:51;22.67;;;12.05;;
65753;SDS011;52488;47.502;18.940;2022-11-18T00:36:55;23.12;;;11.75;;
65753;SDS011;52488;47.502;18.940;2022-11-18T00:37:58;24.65;;;12.50;;
65753;SDS011;52488;47.502;18.940;2022-11-18T00:39:01;22.90;;;12.60;;
65753;SDS011;52488;47.502;18.940;2022-11-18T00:40:04;23.20;;;12.35;;
65753;SDS011;52488;47.502;18.940;2022-11-18T00:41:08;21.73;;;10.55;;
65753;SDS011;52488;47.502;18.940;2022-11-18T00:42:13;19.62;;;11.18;;
65753;SDS011;52488;47.502;18.940;2022-11-18T00:43:35;24.73;;;11.77;;
65753;SDS011;52488;47.502;18.940;2022-11-18T00:44:38;20.67;;;11.63;;
65753;SDS011;52488;47.502;18.940;2022-11-18T00:45:41;23.02;;;11.98;;
65753;SDS011;52488;47.502;18.940;2022-11-18T00:46:45;23.23;;;11.77;;
65753;SDS011;52488;47.502;18.940;2022-11-18T00:47:48;25.52;;;13.02;;
65753;SDS011;52488;47.502;18.940;2022-11-18T00:48:51;24.10;;;12.23;;
65753;SDS011;52488;47.502;18.940;2022-11-18T00:49:54;26.45;;;12.37;;
65753;SDS011;52488;47.502;18.940;2022-11-18T00:50:57;24.45;;;11.50;;
65753;SDS011;52488;47.502;18.940;2022-11-18T00:52:07;23.87;;;12.37;;
65753;SDS011;52488;47.502;18.940;2022-11-18T00:53:10;21.25;;;11.07;;
65753;SDS011;52488;47.502;18.940;2022-11-18T00:54:13;22.27;;;11.50;;
65753;SDS011;52488;47.502;18.940;2022-11-18T00:55:16;22.42;;;11.55;;
65753;SDS011;52488;47.502;18.940;2022-11-18T00:56:19;21.27;;;12.00;;
65753;SDS011;52488;47.502;18.940;2022-11-18T00:57:22;22.67;;;11.48;;
65753;SDS011;52488;47.502;18.940;2022-11-18T00:58:24;25.42;;;11.68;;
65753;SDS011;52488;47.502;18.940;2022-11-18T00:59:27;21.48;;;11.07;;
65753;SDS011;52488;47.502;18.940;2022-11-18T01:00:30;25.20;;;11.90;;
65753;SDS011;52488;47.502;18.940;2022-11-18T01:01:33;24.37;;;12.30;;
65753;SDS011;52488;47.502;18.940;2022-11-18T01:02:37;23.52;;;12.07;;
65753;SDS011;52488;47.502;18.940;2022-11-18T01:03:39;22.60;;;11.68;;
65753;SDS011;52488;47.502;18.940;2022-11-18T01:04:42;22.05;;;11.10;;
65753;SDS011;52488;47.502;18.940;2022-11-18T01:05:45;22.45;;;11.25;;
65753;SDS011;52488;47.502;18.940;2022-11-18T01:06:49;25.60;;;11.75;;
65753;SDS011;52488;47.502;18.940;2022-11-18T01:07:51;20.77;;;10.68;;
65753;SDS011;52488;47.502;18.940;2022-11-18T01:08:54;22.25;;;11.52;;
65753;SDS011;52488;47.502;18.940;2022-11-18T01:09:57;23.00;;;11.50;;
65753;SDS011;52488;47.502;18.940;2022-11-18T01:11:00;21.70;;;11.12;;
65753;SDS011;52488;47.502;18.940;2022-11-18T01:12:23;20.77;;;10.90;;
65753;SDS011;52488;47.502;18.940;2022-11-18T01:13:44;22.98;;;10.60;;
65753;SDS011;52488;47.502;18.940;2022-11-18T01:14:53;20.62;;;9.98;;
65753;SDS011;52488;47.502;18.940;2022-11-18T01:15:57;23.77;;;10.73;;
65753;SDS011;52488;47.502;18.940;2022-11-18T01:17:00;21.45;;;10.48;;
65753;SDS011;52488;47.502;18.940;2022-11-18T01:18:02;22.27;;;10.65;;
65753;SDS011;52488;47.502;18.940;2022-11-18T01:19:05;21.42;;;10.32;;
65753;SDS011;52488;47.502;18.940;2022-11-18T01:20:09;22.23;;;10.82;;
65753;SDS011;52488;47.502;18.940;2022-11-18T01:21:12;21.23;;;10.88;;
65753;SDS011;52488;47.502;18.940;2022-11-18T01:22:15;19.98;;;10.27;;
65753;SDS011;52488;47.502;18.940;2022-11-18T01:23:18;17.70;;;9.85;;
65753;SDS011;52488;47.502;18.940;2022-11-18T01:24:22;18.92;;;10.32;;
65753;SDS011;52488;47.502;18.940;2022-11-18T01:25:25;22.30;;;9.52;;
65753;SDS011;52488;47.502;18.940;2022-11-18T01:26:28;17.92;;;10.27;;
65753;SDS011;52488;47.502;18.940;2022-11-18T01:27:31;18.58;;;9.85;;
65753;SDS011;52488;47.502;18.940;2022-11-18T01:28:35;18.12;;;9.98;;
65753;SDS011;52488;47.502;18.940;2022-11-18T01:29:38;19.62;;;9.93;;
65753;SDS011;52488;47.502;18.940;2022-11-18T01:30:40;20.00;;;9.93;;
65753;SDS011;52488;47.502;18.940;2022-11-18T01:31:43;22.35;;;10.25;;
65753;SDS011;52488;47.502;18.940;2022-11-18T01:33:06;21.70;;;9.85;;
65753;SDS011;52488;47.502;18.940;2022-11-18T01:34:10;21.90;;;10.70;;
65753;SDS011;52488;47.502;18.940;2022-11-18T01:35:13;18.90;;;10.02;;
65753;SDS011;52488;47.502;18.940;2022-11-18T01:36:20;22.37;;;10.73;;
65753;SDS011;52488;47.502;18.940;2022-11-18T01:37:27;20.00;;;10.73;;
65753;SDS011;52488;47.502;18.940;2022-11-18T01:38:30;22.98;;;10.35;;
65753;SDS011;52488;47.502;18.940;2022-11-18T01:39:37;22.98;;;11.02;;
65753;SDS011;52488;47.502;18.940;2022-11-18T01:40:40;22.37;;;11.12;;
65753;SDS011;52488;47.502;18.940;2022-11-18T01:41:43;20.92;;;10.77;;
65753;SDS011;52488;47.502;18.940;2022-11-18T01:42:46;22.35;;;10.98;;
65753;SDS011;52488;47.502;18.940;2022-11-18T01:43:59;20.95;;;10.60;;
65753;SDS011;52488;47.502;18.940;2022-11-18T01:45:20;20.80;;;10.77;;
65753;SDS011;52488;47.502;18.940;2022-11-18T01:46:41;18.83;;;9.43;;
65753;SDS011;52488;47.502;18.940;2022-11-18T01:47:47;20.80;;;10.75;;
65753;SDS011;52488;47.502;18.940;2022-11-18T01:50:05;18.20;;;9.93;;
65753;SDS011;52488;47.502;18.940;2022-11-18T01:51:17;17.77;;;9.23;;
65753;SDS011;52488;47.502;18.940;2022-11-18T01:52:22;21.08;;;9.98;;
65753;SDS011;52488;47.502;18.940;2022-11-18T01:53:32;18.08;;;9.68;;
65753;SDS011;52488;47.502;18.940;2022-11-18T01:54:38;18.12;;;9.80;;
65753;SDS011;52488;47.502;18.940;2022-11-18T01:55:45;19.83;;;10.50;;
65753;SDS011;52488;47.502;18.940;2022-11-18T01:56:54;21.65;;;10.38;;
65753;SDS011;52488;47.502;18.940;2022-11-18T01:58:10;21.67;;;10.88;;
65753;SDS011;52488;47.502;18.940;2022-11-18T01:59:18;23.23;;;10.18;;
65753;SDS011;52488;47.502;18.940;2022-11-18T02:00:25;19.73;;;9.95;;
65753;SDS011;52488;47.502;18.940;2022-11-18T02:01:28;20.73;;;10.30;;
65753;SDS011;52488;47.502;18.940;2022-11-18T02:02:32;22.60;;;11.20;;
65753;SDS011;52488;47.502;18.940;2022-11-18T02:03:38;18.62;;;9.75;;
65753;SDS011;52488;47.502;18.940;2022-11-18T02:04:44;25.83;;;11.38;;
65753;SDS011;52488;47.502;18.940;2022-11-18T02:05:50;20.90;;;10.07;;
65753;SDS011;52488;47.502;18.940;2022-11-18T02:06:55;22.90;;;9.93;;
65753;SDS011;52488;47.502;18.940;2022-11-18T02:07:59;21.60;;;10.25;;
65753;SDS011;52488;47.502;18.940;2022-11-18T02:09:03;20.05;;;9.60;;
65753;SDS011;52488;47.502;18.940;2022-11-18T02:10:06;19.40;;;10.80;;
65753;SDS011;52488;47.502;18.940;2022-11-18T02:11:11;18.60;;;10.10;;
65753;SDS011;52488;47.502;18.940;2022-11-18T02:12:36;21.52;;;10.73;;
65753;SDS011;52488;47.502;18.940;2022-11-18T02:13:39;22.42;;;11.68;;
65753;SDS011;52488;47.502;18.940;2022-11-18T02:14:42;24.02;;;11.98;;
65753;SDS011;52488;47.502;18.940;2022-11-18T02:15:52;21.55;;;11.12;;
65753;SDS011;52488;47.502;18.940;2022-11-18T02:18:38;23.62;;;10.82;;
65753;SDS011;52488;47.502;18.940;2022-11-18T02:29:08;20.55;;;10.25;;
65753;SDS011;52488;47.502;18.940;2022-11-18T02:30:16;21.77;;;10.02;;
65753;SDS011;52488;47.502;18.940;2022-11-18T02:31:26;20.37;;;10.45;;
65753;SDS011;52488;47.502;18.940;2022-11-18T02:32:48;22.60;;;10.48;;
65753;SDS011;52488;47.502;18.940;2022-11-18T02:33:56;20.70;;;10.02;;
65753;SDS011;52488;47.502;18.940;2022-11-18T02:36:33;22.77;;;10.48;;
65753;SDS011;52488;47.502;18.940;2022-11-18T02:38:58;19.77;;;10.82;;
65753;SDS011;52488;47.502;18.940;2022-11-18T02:41:52;21.98;;;10.60;;
65753;SDS011;52488;47.502;18.940;2022-11-18T02:43:09;20.62;;;10.25;;
65753;SDS011;52488;47.502;18.940;2022-11-18T02:44:18;19.87;;;10.68;;
65753;SDS011;52488;47.502;18.940;2022-11-18T02:45:23;19.73;;;11.23;;
65753;SDS011;52488;47.502;18.940;2022-11-18T02:46:31;21.77;;;10.98;;
65753;SDS011;52488;47.502;18.940;2022-11-18T02:47:37;21.35;;;10.63;;
65753;SDS011;52488;47.502;18.940;2022-11-18T02:48:44;24.42;;;12.15;;
65753;SDS011;52488;47.502;18.940;2022-11-18T02:49:52;23.17;;;11.98;;
65753;SDS011;52488;47.502;18.940;2022-11-18T02:51:00;25.35;;;12.55;;
65753;SDS011;52488;47.502;18.940;2022-11-18T02:52:09;23.90;;;12.23;;
65753;SDS011;52488;47.502;18.940;2022-11-18T02:53:14;23.73;;;11.32;;
65753;SDS011;52488;47.502;18.940;2022-11-18T02:54:21;22.17;;;11.00;;
65753;SDS011;52488;47.502;18.940;2022-11-18T02:55:26;24.12;;;12.02;;
65753;SDS011;52488;47.502;18.940;2022-11-18T02:56:32;25.60;;;12.65;;
65753;SDS011;52488;47.502;18.940;2022-11-18T02:57:36;23.58;;;10.98;;
65753;SDS011;52488;47.502;18.940;2022-11-18T02:58:44;24.08;;;12.35;;
65753;SDS011;52488;47.502;18.940;2022-11-18T02:59:47;25.90;;;12.57;;
65753;SDS011;52488;47.502;18.940;2022-11-18T03:00:54;24.50;;;12.48;;
65753;SDS011;52488;47.502;18.940;2022-11-18T03:02:02;24.63;;;11.82;;
65753;SDS011;52488;47.502;18.940;2022-11-18T03:05:41;25.25;;;11.38;;
65753;SDS011;52488;47.502;18.940;2022-11-18T03:08:16;30.67;;;14.35;;
65753;SDS011;52488;47.502;18.940;2022-11-18T03:09:31;34.13;;;15.20;;
65753;SDS011;52488;47.502;18.940;2022-11-18T03:10:42;34.95;;;15.45;;
65753;SDS011;52488;47.502;18.940;2022-11-18T03:12:02;35.10;;;15.93;;
65753;SDS011;52488;47.502;18.940;2022-11-18T03:16:39;32.33;;;13.98;;
65753;SDS011;52488;47.502;18.940;2022-11-18T03:18:15;29.37;;;13.48;;
65753;SDS011;52488;47.502;18.940;2022-11-18T03:22:41;34.75;;;15.05;;
65753;SDS011;52488;47.502;18.940;2022-11-18T03:23:50;31.60;;;14.98;;
65753;SDS011;52488;47.502;18.940;2022-11-18T03:25:02;30.85;;;13.65;;
65753;SDS011;52488;47.502;18.940;2022-11-18T03:26:18;31.92;;;14.95;;
65753;SDS011;52488;47.502;18.940;2022-11-18T03:27:29;32.25;;;15.55;;
65753;SDS011;52488;47.502;18.940;2022-11-18T03:28:42;28.77;;;14.40;;
65753;SDS011;52488;47.502;18.940;2022-11-18T03:29:57;29.08;;;14.57;;
65753;SDS011;52488;47.502;18.940;2022-11-18T03:32:42;30.83;;;14.50;;
65753;SDS011;52488;47.502;18.940;2022-11-18T03:33:53;30.88;;;14.20;;
65753;SDS011;52488;47.502;18.940;2022-11-18T03:35:01;27.70;;;13.40;;
65753;SDS011;52488;47.502;18.940;2022-11-18T03:36:10;29.75;;;14.68;;
65753;SDS011;52488;47.502;18.940;2022-11-18T03:37:16;31.20;;;14.15;;
65753;SDS011;52488;47.502;18.940;2022-11-18T03:38:32;27.37;;;13.35;;
65753;SDS011;52488;47.502;18.940;2022-11-18T03:39:41;26.90;;;13.13;;
65753;SDS011;52488;47.502;18.940;2022-11-18T03:40:51;29.67;;;14.30;;
65753;SDS011;52488;47.502;18.940;2022-11-18T03:42:10;33.65;;;15.02;;
65753;SDS011;52488;47.502;18.940;2022-11-18T03:43:18;30.15;;;15.10;;
65753;SDS011;52488;47.502;18.940;2022-11-18T03:44:29;42.42;;;14.98;;
65753;SDS011;52488;47.502;18.940;2022-11-18T03:45:41;38.83;;;15.93;;
65753;SDS011;52488;47.502;18.940;2022-11-18T03:46:55;98.75;;;17.05;;
65753;SDS011;52488;47.502;18.940;2022-11-18T03:48:10;54.20;;;16.08;;
65753;SDS011;52488;47.502;18.940;2022-11-18T03:49:19;118.45;;;18.15;;
65753;SDS011;52488;47.502;18.940;2022-11-18T03:50:31;51.20;;;16.73;;
65753;SDS011;52488;47.502;18.940;2022-11-18T03:51:40;85.35;;;17.30;;
65753;SDS011;52488;47.502;18.940;2022-11-18T03:52:46;55.40;;;17.83;;
65753;SDS011;52488;47.502;18.940;2022-11-18T03:53:55;78.95;;;16.92;;
65753;SDS011;52488;47.502;18.940;2022-11-18T03:55:08;70.12;;;17.87;;
65753;SDS011;52488;47.502;18.940;2022-11-18T03:56:17;221.73;;;20.80;;
65753;SDS011;52488;47.502;18.940;2022-11-18T03:57:25;198.60;;;19.15;;
65753;SDS011;52488;47.502;18.940;2022-11-18T03:58:37;56.58;;;16.55;;
65753;SDS011;52488;47.502;18.940;2022-11-18T03:59:52;90.60;;;15.68;;
65753;SDS011;52488;47.502;18.940;2022-11-18T04:01:07;46.55;;;14.93;;
65753;SDS011;52488;47.502;18.940;2022-11-18T04:02:20;69.70;;;16.12;;
65753;SDS011;52488;47.502;18.940;2022-11-18T04:03:28;100.32;;;16.02;;
65753;SDS011;52488;47.502;18.940;2022-11-18T04:04:31;68.03;;;16.50;;
65753;SDS011;52488;47.502;18.940;2022-11-18T04:05:36;112.47;;;16.58;;
65753;SDS011;52488;47.502;18.940;2022-11-18T04:06:41;135.82;;;18.65;;
65753;SDS011;52488;47.502;18.940;2022-11-18T04:07:55;83.87;;;15.30;;
65753;SDS011;52488;47.502;18.940;2022-11-18T04:09:02;97.32;;;16.23;;
65753;SDS011;52488;47.502;18.940;2022-11-18T04:11:31;105.12;;;16.20;;
65753;SDS011;52488;47.502;18.940;2022-11-18T04:13:01;127.57;;;18.08;;
65753;SDS011;52488;47.502;18.940;2022-11-18T04:14:34;104.97;;;16.73;;
65753;SDS011;52488;47.502;18.940;2022-11-18T04:15:40;90.95;;;15.35;;
65753;SDS011;52488;47.502;18.940;2022-11-18T04:16:48;30.55;;;14.82;;
65753;SDS011;52488;47.502;18.940;2022-11-18T04:17:55;29.40;;;14.68;;
65753;SDS011;52488;47.502;18.940;2022-11-18T04:18:59;26.67;;;14.77;;
65753;SDS011;52488;47.502;18.940;2022-11-18T04:20:11;30.62;;;14.95;;
65753;SDS011;52488;47.502;18.940;2022-11-18T04:21:18;32.97;;;15.88;;
65753;SDS011;52488;47.502;18.940;2022-11-18T04:22:21;36.28;;;16.12;;
65753;SDS011;52488;47.502;18.940;2022-11-18T04:23:24;28.12;;;14.95;;
65753;SDS011;52488;47.502;18.940;2022-11-18T04:24:27;28.75;;;14.57;;
65753;SDS011;52488;47.502;18.940;2022-11-18T04:25:30;26.60;;;14.80;;
65753;SDS011;52488;47.502;18.940;2022-11-18T04:26:33;28.05;;;14.23;;
65753;SDS011;52488;47.502;18.940;2022-11-18T04:27:36;28.80;;;14.85;;
65753;SDS011;52488;47.502;18.940;2022-11-18T04:28:39;29.35;;;15.00;;
65753;SDS011;52488;47.502;18.940;2022-11-18T04:29:42;26.55;;;13.80;;
65753;SDS011;52488;47.502;18.940;2022-11-18T04:30:45;30.48;;;15.90;;
65753;SDS011;52488;47.502;18.940;2022-11-18T04:31:48;27.35;;;14.45;;
65753;SDS011;52488;47.502;18.940;2022-11-18T04:32:51;27.40;;;13.93;;
65753;SDS011;52488;47.502;18.940;2022-11-18T04:33:54;29.70;;;14.68;;
65753;SDS011;52488;47.502;18.940;2022-11-18T04:34:57;26.05;;;13.98;;
65753;SDS011;52488;47.502;18.940;2022-11-18T04:36:00;25.27;;;13.85;;
65753;SDS011;52488;47.502;18.940;2022-11-18T04:37:06;24.92;;;13.73;;
65753;SDS011;52488;47.502;18.940;2022-11-18T04:38:09;28.33;;;14.87;;
65753;SDS011;52488;47.502;18.940;2022-11-18T04:39:12;26.98;;;14.00;;
65753;SDS011;52488;47.502;18.940;2022-11-18T04:40:16;23.20;;;13.20;;
65753;SDS011;52488;47.502;18.940;2022-11-18T04:41:19;24.05;;;12.90;;
65753;SDS011;52488;47.502;18.940;2022-11-18T04:42:22;25.05;;;13.65;;
65753;SDS011;52488;47.502;18.940;2022-11-18T04:43:25;28.60;;;14.75;;
65753;SDS011;52488;47.502;18.940;2022-11-18T04:44:29;27.70;;;14.60;;
65753;SDS011;52488;47.502;18.940;2022-11-18T04:45:35;26.75;;;13.90;;
65753;SDS011;52488;47.502;18.940;2022-11-18T04:46:41;31.30;;;14.82;;
65753;SDS011;52488;47.502;18.940;2022-11-18T04:47:45;29.37;;;15.30;;
65753;SDS011;52488;47.502;18.940;2022-11-18T04:48:48;29.73;;;14.55;;
65753;SDS011;52488;47.502;18.940;2022-11-18T04:49:50;28.25;;;15.05;;
65753;SDS011;52488;47.502;18.940;2022-11-18T04:50:55;28.65;;;15.70;;
65753;SDS011;52488;47.502;18.940;2022-11-18T04:51:59;30.58;;;15.18;;
65753;SDS011;52488;47.502;18.940;2022-11-18T04:53:02;29.73;;;14.93;;
65753;SDS011;52488;47.502;18.940;2022-11-18T04:55:27;29.75;;;14.63;;
65753;SDS011;52488;47.502;18.940;2022-11-18T04:56:30;25.98;;;13.65;;
65753;SDS011;52488;47.502;18.940;2022-11-18T04:57:33;32.05;;;15.43;;
65753;SDS011;52488;47.502;18.940;2022-11-18T04:58:36;29.67;;;14.98;;
65753;SDS011;52488;47.502;18.940;2022-11-18T04:59:39;28.25;;;14.85;;
65753;SDS011;52488;47.502;18.940;2022-11-18T05:00:42;27.48;;;14.57;;
65753;SDS011;52488;47.502;18.940;2022-11-18T05:01:45;30.77;;;15.40;;
65753;SDS011;52488;47.502;18.940;2022-11-18T05:02:48;32.92;;;15.18;;
65753;SDS011;52488;47.502;18.940;2022-11-18T05:03:51;30.90;;;16.02;;
65753;SDS011;52488;47.502;18.940;2022-11-18T05:04:54;29.77;;;15.35;;
65753;SDS011;52488;47.502;18.940;2022-11-18T05:05:59;30.30;;;15.30;;
65753;SDS011;52488;47.502;18.940;2022-11-18T05:07:03;31.40;;;15.70;;
65753;SDS011;52488;47.502;18.940;2022-11-18T05:08:07;31.27;;;15.07;;
65753;SDS011;52488;47.502;18.940;2022-11-18T05:09:09;32.58;;;14.93;;
65753;SDS011;52488;47.502;18.940;2022-11-18T05:10:13;28.55;;;14.68;;
65753;SDS011;52488;47.502;18.940;2022-11-18T05:11:16;28.12;;;14.57;;
65753;SDS011;52488;47.502;18.940;2022-11-18T05:12:38;29.35;;;14.35;;
65753;SDS011;52488;47.502;18.940;2022-11-18T05:13:50;31.25;;;15.43;;
65753;SDS011;52488;47.502;18.940;2022-11-18T05:14:53;31.42;;;15.32;;
65753;SDS011;52488;47.502;18.940;2022-11-18T05:15:59;33.88;;;14.87;;
65753;SDS011;52488;47.502;18.940;2022-11-18T05:17:03;30.33;;;16.10;;
65753;SDS011;52488;47.502;18.940;2022-11-18T05:18:09;32.40;;;16.35;;
65753;SDS011;52488;47.502;18.940;2022-11-18T05:19:13;28.45;;;14.43;;
65753;SDS011;52488;47.502;18.940;2022-11-18T05:20:17;31.27;;;15.07;;
65753;SDS011;52488;47.502;18.940;2022-11-18T05:21:19;31.83;;;14.90;;
65753;SDS011;52488;47.502;18.940;2022-11-18T05:22:22;28.87;;;15.27;;
65753;SDS011;52488;47.502;18.940;2022-11-18T05:23:25;29.40;;;13.68;;
65753;SDS011;52488;47.502;18.940;2022-11-18T05:24:28;31.92;;;14.48;;
65753;SDS011;52488;47.502;18.940;2022-11-18T05:25:31;30.58;;;14.85;;
65753;SDS011;52488;47.502;18.940;2022-11-18T05:26:34;29.33;;;13.62;;
65753;SDS011;52488;47.502;18.940;2022-11-18T05:27:38;30.98;;;15.15;;
65753;SDS011;52488;47.502;18.940;2022-11-18T05:28:40;34.83;;;16.27;;
65753;SDS011;52488;47.502;18.940;2022-11-18T05:29:43;30.52;;;15.98;;
65753;SDS011;52488;47.502;18.940;2022-11-18T05:30:46;33.35;;;16.08;;
65753;SDS011;52488;47.502;18.940;2022-11-18T05:31:48;33.63;;;16.02;;
65753;SDS011;52488;47.502;18.940;2022-11-18T05:32:51;37.15;;;16.90;;
65753;SDS011;52488;47.502;18.940;2022-11-18T05:33:54;35.08;;;16.70;;
65753;SDS011;52488;47.502;18.940;2022-11-18T05:34:57;33.95;;;16.62;;
65753;SDS011;52488;47.502;18.940;2022-11-18T05:36:03;33.13;;;16.23;;
65753;SDS011;52488;47.502;18.940;2022-11-18T05:37:07;35.28;;;16.40;;
65753;SDS011;52488;47.502;18.940;2022-11-18T05:38:10;34.58;;;16.58;;
65753;SDS011;52488;47.502;18.940;2022-11-18T05:39:13;37.30;;;17.50;;
65753;SDS011;52488;47.502;18.940;2022-11-18T05:40:16;31.87;;;15.68;;
65753;SDS011;52488;47.502;18.940;2022-11-18T05:41:19;34.70;;;16.73;;
65753;SDS011;52488;47.502;18.940;2022-11-18T05:42:40;37.88;;;17.75;;
65753;SDS011;52488;47.502;18.940;2022-11-18T05:44:02;34.38;;;16.23;;
65753;SDS011;52488;47.502;18.940;2022-11-18T05:45:06;33.75;;;16.65;;
65753;SDS011;52488;47.502;18.940;2022-11-18T05:46:09;36.20;;;17.37;;
65753;SDS011;52488;47.502;18.940;2022-11-18T05:47:12;36.47;;;16.95;;
65753;SDS011;52488;47.502;18.940;2022-11-18T05:48:15;36.67;;;17.30;;
65753;SDS011;52488;47.502;18.940;2022-11-18T05:49:19;36.92;;;18.08;;
65753;SDS011;52488;47.502;18.940;2022-11-18T05:50:22;40.30;;;18.08;;
65753;SDS011;52488;47.502;18.940;2022-11-18T05:51:24;33.95;;;16.62;;
65753;SDS011;52488;47.502;18.940;2022-11-18T05:52:27;39.40;;;17.48;;
65753;SDS011;52488;47.502;18.940;2022-11-18T05:53:30;38.90;;;18.17;;
65753;SDS011;52488;47.502;18.940;2022-11-18T05:54:33;38.25;;;18.33;;
65753;SDS011;52488;47.502;18.940;2022-11-18T05:55:39;41.42;;;17.80;;
65753;SDS011;52488;47.502;18.940;2022-11-18T05:57:06;38.47;;;17.17;;
65753;SDS011;52488;47.502;18.940;2022-11-18T05:58:09;39.05;;;17.95;;
65753;SDS011;52488;47.502;18.940;2022-11-18T05:59:11;40.40;;;17.27;;
65753;SDS011;52488;47.502;18.940;2022-11-18T06:00:18;41.03;;;18.55;;
65753;SDS011;52488;47.502;18.940;2022-11-18T06:01:25;35.60;;;17.45;;
65753;SDS011;52488;47.502;18.940;2022-11-18T06:02:29;35.42;;;16.40;;
65753;SDS011;52488;47.502;18.940;2022-11-18T06:03:33;38.92;;;17.60;;
65753;SDS011;52488;47.502;18.940;2022-11-18T06:04:44;44.63;;;18.48;;
65753;SDS011;52488;47.502;18.940;2022-11-18T06:05:51;46.00;;;18.67;;
65753;SDS011;52488;47.502;18.940;2022-11-18T06:06:58;45.17;;;18.12;;
65753;SDS011;52488;47.502;18.940;2022-11-18T06:08:07;53.17;;;18.98;;
65753;SDS011;52488;47.502;18.940;2022-11-18T06:09:14;39.47;;;16.75;;
65753;SDS011;52488;47.502;18.940;2022-11-18T06:10:23;49.78;;;19.17;;
65753;SDS011;52488;47.502;18.940;2022-11-18T06:11:38;47.92;;;19.45;;
65753;SDS011;52488;47.502;18.940;2022-11-18T06:12:45;38.45;;;17.67;;
65753;SDS011;52488;47.502;18.940;2022-11-18T06:13:58;45.28;;;17.73;;
65753;SDS011;52488;47.502;18.940;2022-11-18T06:15:10;77.35;;;18.92;;
65753;SDS011;52488;47.502;18.940;2022-11-18T06:16:19;63.97;;;21.00;;
65753;SDS011;52488;47.502;18.940;2022-11-18T06:17:30;50.75;;;18.87;;
65753;SDS011;52488;47.502;18.940;2022-11-18T06:18:43;55.45;;;18.40;;
65753;SDS011;52488;47.502;18.940;2022-11-18T06:19:46;64.35;;;20.27;;
65753;SDS011;52488;47.502;18.940;2022-11-18T06:20:49;53.20;;;18.77;;
65753;SDS011;52488;47.502;18.940;2022-11-18T06:21:54;41.80;;;18.85;;
65753;SDS011;52488;47.502;18.940;2022-11-18T06:22:57;46.88;;;18.62;;
65753;SDS011;52488;47.502;18.940;2022-11-18T06:23:59;50.97;;;19.02;;
65753;SDS011;52488;47.502;18.940;2022-11-18T06:25:04;43.58;;;18.17;;
65753;SDS011;52488;47.502;18.940;2022-11-18T06:26:07;53.78;;;18.45;;
65753;SDS011;52488;47.502;18.940;2022-11-18T06:27:10;55.92;;;19.37;;
65753;SDS011;52488;47.502;18.940;2022-11-18T06:28:15;66.20;;;21.48;;
65753;SDS011;52488;47.502;18.940;2022-11-18T06:29:18;48.30;;;19.67;;
65753;SDS011;52488;47.502;18.940;2022-11-18T06:30:28;57.95;;;21.33;;
65753;SDS011;52488;47.502;18.940;2022-11-18T06:31:31;78.80;;;19.90;;
65753;SDS011;52488;47.502;18.940;2022-11-18T06:32:34;187.52;;;26.37;;
65753;SDS011;52488;47.502;18.940;2022-11-18T06:33:36;93.78;;;19.73;;
65753;SDS011;52488;47.502;18.940;2022-11-18T06:34:45;118.65;;;20.52;;
65753;SDS011;52488;47.502;18.940;2022-11-18T06:35:48;163.57;;;21.30;;
65753;SDS011;52488;47.502;18.940;2022-11-18T06:36:50;118.20;;;20.85;;
65753;SDS011;52488;47.502;18.940;2022-11-18T06:37:53;115.18;;;20.90;;
65753;SDS011;52488;47.502;18.940;2022-11-18T06:38:55;151.60;;;21.08;;
65753;SDS011;52488;47.502;18.940;2022-11-18T06:40:03;139.77;;;19.87;;
65753;SDS011;52488;47.502;18.940;2022-11-18T06:41:06;228.25;;;23.08;;
65753;SDS011;52488;47.502;18.940;2022-11-18T06:42:08;119.40;;;20.70;;
65753;SDS011;52488;47.502;18.940;2022-11-18T06:43:11;97.40;;;20.92;;
65753;SDS011;52488;47.502;18.940;2022-11-18T06:44:53;157.52;;;20.62;;
65753;SDS011;52488;47.502;18.940;2022-11-18T06:45:59;86.70;;;19.42;;
65753;SDS011;52488;47.502;18.940;2022-11-18T06:47:21;53.63;;;17.37;;
65753;SDS011;52488;47.502;18.940;2022-11-18T06:48:24;76.95;;;18.60;;
65753;SDS011;52488;47.502;18.940;2022-11-18T06:49:26;72.10;;;18.42;;
65753;SDS011;52488;47.502;18.940;2022-11-18T06:50:29;107.03;;;19.58;;
65753;SDS011;52488;47.502;18.940;2022-11-18T06:51:32;96.30;;;18.55;;
65753;SDS011;52488;47.502;18.940;2022-11-18T06:52:35;58.85;;;18.98;;
65753;SDS011;52488;47.502;18.940;2022-11-18T06:53:38;61.63;;;17.62;;
65753;SDS011;52488;47.502;18.940;2022-11-18T06:54:40;63.35;;;18.45;;